Aérodrome :
LOGIN :

S'inscrire | Disclaimer

   EN    FR    IT 

 










Légende :    VFR   VFR Marginal   IFR   IFR Intensif   IFR Très Intensif
Visi : 
Plafond : 
>= 8 km
>= 3000ft
5 à 8 km
1000 à 3000 ft
1500m à 5 km
500 à 1000 ft
800 à 1500m
200 à 500 ft
< 800m
< 200 ft
Symboles :   Orages  Brouillard  Fortes neiges  Fortes précipitations  Vent > 20 kt
SIGMETs :   Divers  Orages  Givrage  Turbulence  Onde Orograph.  Cendres Volcan.







- Altitude de l'aérodrome : 610 ft
- Code IATA : VXO


ESMX - Växjö Kronoberg

DERNIER METAR :
  • 170420Z 23007KT CAVOK 08/07 Q1003

METARs EXPIRÉS :
  • 170350Z AUTO 22007KT 9999 SCT020/// BKN049/// 08/08 Q1003
  • 170320Z AUTO 23007G17KT 9999 FEW004/// SCT031/// BKN043/// 08/08 Q1004 RERA REUP
  • 170250Z AUTO 22008KT 9999 FEW036/// 07/07 Q1004
  • 170220Z AUTO 22007KT 9999 FEW130/// 07/07 Q1005
  • 170150Z AUTO 23008KT 9999 NCD 07/07 Q1005

TAF TAF ESMX
Valide du 17 à 04h jusqu'au 17 à 12h UTC


170330Z 1704/1712 23008KT 9999 FEW035
PROB40 1704/1712 SHRA BKN020CB
Pas de NOTAMs connus pour ce terrain.



MET'MAP, la Météo Aéronautique d'un coup d'oeil ! - Copyright ORBIFLY Décembre 2007 - Disclaimer

ORBIFLY MET'MAP TEAM :

Programmation & Développement : Alexandra Zaïnal
Conception & Développement : Baudouin d'Aumeries
Co-Programmation & Développement : Marc-Olivier Méhu
Soutien technique & logistique : Manuel Goepfert

Contact : metmap@orbifly.com




SOURCES & CREDITS :

   NOAA